sensor_id;sensor_type;location;lat;lon;timestamp;pressure;altitude;pressure_sealevel;temperature;humidity
70971;BME280;58632;51.718;19.446;2022-07-25T00:01:54;99883.81;;;16.70;63.81
70971;BME280;58632;51.718;19.446;2022-07-25T00:04:21;99872.59;;;16.63;64.05
70971;BME280;58632;51.718;19.446;2022-07-25T00:06:48;99877.25;;;16.69;64.38
70971;BME280;58632;51.718;19.446;2022-07-25T00:09:16;99878.52;;;16.56;64.58
70971;BME280;58632;51.718;19.446;2022-07-25T00:11:43;99879.64;;;16.35;64.96
70971;BME280;58632;51.718;19.446;2022-07-25T00:14:10;99875.16;;;16.21;65.31
70971;BME280;58632;51.718;19.446;2022-07-25T00:16:38;99880.58;;;16.17;65.48
70971;BME280;58632;51.718;19.446;2022-07-25T00:19:05;99880.89;;;16.22;65.68
70971;BME280;58632;51.718;19.446;2022-07-25T00:21:32;99879.54;;;16.32;65.24
70971;BME280;58632;51.718;19.446;2022-07-25T00:24:00;99884.00;;;16.36;65.18
70971;BME280;58632;51.718;19.446;2022-07-25T00:26:27;99874.62;;;16.41;65.21
70971;BME280;58632;51.718;19.446;2022-07-25T00:28:54;99874.05;;;16.41;64.88
70971;BME280;58632;51.718;19.446;2022-07-25T00:31:21;99875.17;;;16.46;65.23
70971;BME280;58632;51.718;19.446;2022-07-25T00:33:48;99879.22;;;16.43;65.27
70971;BME280;58632;51.718;19.446;2022-07-25T00:36:15;99875.22;;;16.40;65.38
70971;BME280;58632;51.718;19.446;2022-07-25T00:38:43;99872.45;;;16.40;65.32
70971;BME280;58632;51.718;19.446;2022-07-25T00:41:10;99872.11;;;16.42;65.52
70971;BME280;58632;51.718;19.446;2022-07-25T00:43:42;99864.37;;;16.41;65.49
70971;BME280;58632;51.718;19.446;2022-07-25T00:46:14;99867.66;;;16.37;65.28
70971;BME280;58632;51.718;19.446;2022-07-25T00:48:43;99869.66;;;16.30;65.30
70971;BME280;58632;51.718;19.446;2022-07-25T00:51:11;99862.94;;;16.22;65.46
70971;BME280;58632;51.718;19.446;2022-07-25T00:53:39;99868.77;;;16.11;65.73
70971;BME280;58632;51.718;19.446;2022-07-25T00:56:07;99864.37;;;16.00;66.26
70971;BME280;58632;51.718;19.446;2022-07-25T00:58:35;99863.58;;;15.99;66.26
70971;BME280;58632;51.718;19.446;2022-07-25T01:01:02;99859.20;;;15.98;66.03
70971;BME280;58632;51.718;19.446;2022-07-25T01:03:30;99858.17;;;15.97;65.79
70971;BME280;58632;51.718;19.446;2022-07-25T01:05:57;99862.76;;;15.99;65.80
70971;BME280;58632;51.718;19.446;2022-07-25T01:08:25;99860.00;;;15.99;65.91
70971;BME280;58632;51.718;19.446;2022-07-25T01:10:53;99856.23;;;15.97;65.81
70971;BME280;58632;51.718;19.446;2022-07-25T01:13:20;99858.72;;;16.02;66.05
70971;BME280;58632;51.718;19.446;2022-07-25T01:15:47;99856.03;;;16.06;65.86
70971;BME280;58632;51.718;19.446;2022-07-25T01:18:14;99864.91;;;16.05;65.87
70971;BME280;58632;51.718;19.446;2022-07-25T01:20:43;99862.41;;;16.00;65.90
70971;BME280;58632;51.718;19.446;2022-07-25T01:23:10;99862.76;;;15.99;65.60
70971;BME280;58632;51.718;19.446;2022-07-25T01:25:38;99860.86;;;15.93;65.75
70971;BME280;58632;51.718;19.446;2022-07-25T01:28:05;99856.98;;;15.88;65.94
70971;BME280;58632;51.718;19.446;2022-07-25T01:30:32;99856.50;;;15.92;66.08
70971;BME280;58632;51.718;19.446;2022-07-25T01:33:00;99855.20;;;15.96;66.06
70971;BME280;58632;51.718;19.446;2022-07-25T01:35:27;99854.40;;;15.95;66.04
70971;BME280;58632;51.718;19.446;2022-07-25T01:37:54;99858.41;;;15.98;66.04
70971;BME280;58632;51.718;19.446;2022-07-25T01:40:22;99856.23;;;15.97;65.92
70971;BME280;58632;51.718;19.446;2022-07-25T01:42:49;99856.92;;;15.94;65.85
70971;BME280;58632;51.718;19.446;2022-07-25T01:45:16;99850.39;;;15.93;66.03
70971;BME280;58632;51.718;19.446;2022-07-25T01:47:44;99849.36;;;15.91;65.89
70971;BME280;58632;51.718;19.446;2022-07-25T01:50:11;99849.02;;;15.93;65.97
70971;BME280;58632;51.718;19.446;2022-07-25T01:52:38;99848.74;;;15.98;65.93
70971;BME280;58632;51.718;19.446;2022-07-25T01:55:07;99844.59;;;15.98;65.99
70971;BME280;58632;51.718;19.446;2022-07-25T01:57:35;99846.91;;;15.96;65.88
70971;BME280;58632;51.718;19.446;2022-07-25T02:00:05;99847.08;;;15.87;65.92
70971;BME280;58632;51.718;19.446;2022-07-25T02:02:33;99843.45;;;15.83;65.90
70971;BME280;58632;51.718;19.446;2022-07-25T02:05:01;99845.31;;;15.79;65.66
70971;BME280;58632;51.718;19.446;2022-07-25T02:07:28;99835.86;;;15.80;65.90
70971;BME280;58632;51.718;19.446;2022-07-25T02:09:56;99834.34;;;15.82;65.77
70971;BME280;58632;51.718;19.446;2022-07-25T02:12:23;99828.75;;;15.79;65.96
70971;BME280;58632;51.718;19.446;2022-07-25T02:14:50;99826.70;;;15.76;65.89
70971;BME280;58632;51.718;19.446;2022-07-25T02:17:18;99831.38;;;15.59;66.04
70971;BME280;58632;51.718;19.446;2022-07-25T02:19:45;99831.20;;;15.52;66.33
70971;BME280;58632;51.718;19.446;2022-07-25T02:22:12;99830.50;;;15.49;66.20
70971;BME280;58632;51.718;19.446;2022-07-25T02:24:39;99822.67;;;15.51;66.33
70971;BME280;58632;51.718;19.446;2022-07-25T02:27:07;99826.81;;;15.51;66.44
70971;BME280;58632;51.718;19.446;2022-07-25T02:29:34;99820.95;;;15.53;66.41
70971;BME280;58632;51.718;19.446;2022-07-25T02:32:01;99816.20;;;15.59;66.31
70971;BME280;58632;51.718;19.446;2022-07-25T02:34:29;99816.73;;;15.65;66.20
70971;BME280;58632;51.718;19.446;2022-07-25T02:36:56;99819.01;;;15.69;66.16
70971;BME280;58632;51.718;19.446;2022-07-25T02:39:24;99818.77;;;15.68;66.08
70971;BME280;58632;51.718;19.446;2022-07-25T02:41:51;99824.42;;;15.72;66.10
70971;BME280;58632;51.718;19.446;2022-07-25T02:44:18;99826.92;;;15.77;65.73
70971;BME280;58632;51.718;19.446;2022-07-25T02:46:45;99831.40;;;15.75;65.85
70971;BME280;58632;51.718;19.446;2022-07-25T02:49:12;99826.25;;;15.74;65.65
70971;BME280;58632;51.718;19.446;2022-07-25T02:51:40;99829.47;;;15.70;65.84
70971;BME280;58632;51.718;19.446;2022-07-25T02:54:07;99829.59;;;15.67;66.02
70971;BME280;58632;51.718;19.446;2022-07-25T02:56:34;99823.28;;;15.66;66.10
70971;BME280;58632;51.718;19.446;2022-07-25T02:59:01;99819.94;;;15.67;65.97
70971;BME280;58632;51.718;19.446;2022-07-25T03:01:28;99820.20;;;15.62;66.10
70971;BME280;58632;51.718;19.446;2022-07-25T03:03:56;99817.66;;;15.63;66.29
70971;BME280;58632;51.718;19.446;2022-07-25T03:06:24;99814.77;;;15.65;66.17
70971;BME280;58632;51.718;19.446;2022-07-25T03:08:51;99815.66;;;15.70;66.36
70971;BME280;58632;51.718;19.446;2022-07-25T03:11:19;99819.56;;;15.75;66.09
70971;BME280;58632;51.718;19.446;2022-07-25T03:13:46;99819.67;;;15.78;65.99
70971;BME280;58632;51.718;19.446;2022-07-25T03:16:13;99821.13;;;15.82;65.96
70971;BME280;58632;51.718;19.446;2022-07-25T03:18:40;99828.61;;;15.81;65.95
70971;BME280;58632;51.718;19.446;2022-07-25T03:21:07;99826.64;;;15.82;65.96
70971;BME280;58632;51.718;19.446;2022-07-25T03:23:34;99830.75;;;15.88;65.81
70971;BME280;58632;51.718;19.446;2022-07-25T03:26:02;99834.27;;;15.95;65.74
70971;BME280;58632;51.718;19.446;2022-07-25T03:28:29;99829.27;;;16.00;65.70
70971;BME280;58632;51.718;19.446;2022-07-25T03:30:56;99832.38;;;15.99;65.68
70971;BME280;58632;51.718;19.446;2022-07-25T03:33:24;99841.80;;;16.04;65.57
70971;BME280;58632;51.718;19.446;2022-07-25T03:35:51;99838.97;;;16.10;65.53
70971;BME280;58632;51.718;19.446;2022-07-25T03:38:19;99836.52;;;16.15;65.43
70971;BME280;58632;51.718;19.446;2022-07-25T03:40:46;99834.86;;;16.20;65.47
70971;BME280;58632;51.718;19.446;2022-07-25T03:43:14;99823.67;;;16.22;65.52
70971;BME280;58632;51.718;19.446;2022-07-25T03:45:41;99832.27;;;16.27;65.44
70971;BME280;58632;51.718;19.446;2022-07-25T03:48:08;99838.19;;;16.35;65.44
70971;BME280;58632;51.718;19.446;2022-07-25T03:50:35;99837.86;;;16.46;65.40
70971;BME280;58632;51.718;19.446;2022-07-25T03:53:03;99839.27;;;16.56;65.27
70971;BME280;58632;51.718;19.446;2022-07-25T03:55:30;99837.89;;;16.66;65.27
70971;BME280;58632;51.718;19.446;2022-07-25T03:57:57;99842.48;;;16.68;65.39
70971;BME280;58632;51.718;19.446;2022-07-25T04:00:24;99843.34;;;16.72;65.67
70971;BME280;58632;51.718;19.446;2022-07-25T04:02:51;99854.33;;;16.84;65.59
70971;BME280;58632;51.718;19.446;2022-07-25T04:05:18;99848.56;;;16.93;65.28
70971;BME280;58632;51.718;19.446;2022-07-25T04:07:45;99848.11;;;17.01;65.24
70971;BME280;58632;51.718;19.446;2022-07-25T04:10:12;99838.23;;;17.09;65.19
70971;BME280;58632;51.718;19.446;2022-07-25T04:12:40;99840.04;;;17.21;64.97
70971;BME280;58632;51.718;19.446;2022-07-25T04:15:07;99839.03;;;17.29;65.07
70971;BME280;58632;51.718;19.446;2022-07-25T04:17:36;99827.79;;;17.42;65.19
70971;BME280;58632;51.718;19.446;2022-07-25T04:20:04;99829.12;;;17.61;64.64
70971;BME280;58632;51.718;19.446;2022-07-25T04:22:32;99822.02;;;17.73;64.50
70971;BME280;58632;51.718;19.446;2022-07-25T04:25:00;99819.52;;;17.88;64.08
70971;BME280;58632;51.718;19.446;2022-07-25T04:27:27;99816.13;;;18.11;64.01
70971;BME280;58632;51.718;19.446;2022-07-25T04:29:54;99813.25;;;19.38;61.34
70971;BME280;58632;51.718;19.446;2022-07-25T04:32:21;99816.72;;;21.22;59.79
70971;BME280;58632;51.718;19.446;2022-07-25T04:34:48;99809.35;;;22.77;56.98
70971;BME280;58632;51.718;19.446;2022-07-25T04:37:17;99814.25;;;24.22;53.55
70971;BME280;58632;51.718;19.446;2022-07-25T04:39:44;99810.95;;;25.37;51.62
70971;BME280;58632;51.718;19.446;2022-07-25T04:42:11;99814.23;;;26.53;48.89
70971;BME280;58632;51.718;19.446;2022-07-25T04:44:38;99808.27;;;27.39;46.80
70971;BME280;58632;51.718;19.446;2022-07-25T04:47:06;99805.70;;;28.43;44.39
70971;BME280;58632;51.718;19.446;2022-07-25T04:49:33;99804.63;;;29.38;42.54
70971;BME280;58632;51.718;19.446;2022-07-25T04:52:00;99808.70;;;30.35;40.44
70971;BME280;58632;51.718;19.446;2022-07-25T04:54:28;99800.88;;;31.01;38.10
70971;BME280;58632;51.718;19.446;2022-07-25T04:56:55;99799.92;;;31.26;36.79
70971;BME280;58632;51.718;19.446;2022-07-25T04:59:23;99801.28;;;31.43;34.84
70971;BME280;58632;51.718;19.446;2022-07-25T05:01:50;99795.42;;;31.38;34.07
70971;BME280;58632;51.718;19.446;2022-07-25T05:04:17;99801.80;;;31.25;33.69
70971;BME280;58632;51.718;19.446;2022-07-25T05:06:45;99795.03;;;31.22;33.39
70971;BME280;58632;51.718;19.446;2022-07-25T05:09:12;99792.66;;;31.20;32.23
70971;BME280;58632;51.718;19.446;2022-07-25T05:11:39;99786.28;;;31.34;32.75
70971;BME280;58632;51.718;19.446;2022-07-25T05:14:06;99789.20;;;31.48;32.53
70971;BME280;58632;51.718;19.446;2022-07-25T05:16:33;99788.83;;;31.86;33.18
70971;BME280;58632;51.718;19.446;2022-07-25T05:19:00;99781.67;;;32.26;33.31
70971;BME280;58632;51.718;19.446;2022-07-25T05:21:28;99780.25;;;32.36;32.13
70971;BME280;58632;51.718;19.446;2022-07-25T05:23:56;99774.77;;;32.37;31.28
70971;BME280;58632;51.718;19.446;2022-07-25T05:26:23;99772.23;;;32.66;31.76
70971;BME280;58632;51.718;19.446;2022-07-25T05:28:50;99774.66;;;33.15;31.92
70971;BME280;58632;51.718;19.446;2022-07-25T05:31:17;99766.43;;;33.64;31.03
70971;BME280;58632;51.718;19.446;2022-07-25T05:33:44;99754.05;;;33.77;29.54
70971;BME280;58632;51.718;19.446;2022-07-25T05:36:11;99756.44;;;33.73;29.65
70971;BME280;58632;51.718;19.446;2022-07-25T05:38:39;99759.42;;;33.41;30.20
70971;BME280;58632;51.718;19.446;2022-07-25T05:41:06;99759.42;;;33.41;30.20
70971;BME280;58632;51.718;19.446;2022-07-25T05:43:33;99763.90;;;33.66;29.88
70971;BME280;58632;51.718;19.446;2022-07-25T05:46:02;99759.34;;;34.08;29.90
70971;BME280;58632;51.718;19.446;2022-07-25T05:48:30;99759.34;;;34.08;29.90
70971;BME280;58632;51.718;19.446;2022-07-25T05:50:57;99751.59;;;34.08;28.33
70971;BME280;58632;51.718;19.446;2022-07-25T05:53:25;99742.61;;;33.66;27.95
70971;BME280;58632;51.718;19.446;2022-07-25T05:55:52;99741.44;;;33.06;28.96
70971;BME280;58632;51.718;19.446;2022-07-25T05:58:19;99741.44;;;33.06;28.96
70971;BME280;58632;51.718;19.446;2022-07-25T06:00:47;99742.02;;;33.53;28.50
70971;BME280;58632;51.718;19.446;2022-07-25T06:03:17;99742.02;;;33.53;28.50
70971;BME280;58632;51.718;19.446;2022-07-25T06:05:45;99747.58;;;34.00;28.72
70971;BME280;58632;51.718;19.446;2022-07-25T06:08:13;99742.91;;;33.92;28.48
70971;BME280;58632;51.718;19.446;2022-07-25T06:10:42;99735.42;;;33.76;28.64
70971;BME280;58632;51.718;19.446;2022-07-25T06:13:09;99744.83;;;34.10;29.24
70971;BME280;58632;51.718;19.446;2022-07-25T06:15:36;99746.88;;;34.68;28.26
70971;BME280;58632;51.718;19.446;2022-07-25T06:18:03;99744.48;;;34.32;27.06
70971;BME280;58632;51.718;19.446;2022-07-25T06:20:30;99744.48;;;34.32;27.06
70971;BME280;58632;51.718;19.446;2022-07-25T06:22:58;99738.09;;;33.79;28.19
70971;BME280;58632;51.718;19.446;2022-07-25T06:25:26;99733.73;;;33.36;28.34
70971;BME280;58632;51.718;19.446;2022-07-25T06:27:53;99738.12;;;33.03;29.93
70971;BME280;58632;51.718;19.446;2022-07-25T06:30:20;99742.30;;;32.75;28.60
70971;BME280;58632;51.718;19.446;2022-07-25T06:32:48;99735.07;;;32.60;30.15
70971;BME280;58632;51.718;19.446;2022-07-25T06:35:16;99728.47;;;32.63;29.95
70971;BME280;58632;51.718;19.446;2022-07-25T06:37:44;99731.15;;;32.53;30.33
70971;BME280;58632;51.718;19.446;2022-07-25T06:40:12;99730.04;;;32.32;30.72
70971;BME280;58632;51.718;19.446;2022-07-25T06:42:42;99725.50;;;31.97;30.82
70971;BME280;58632;51.718;19.446;2022-07-25T06:45:12;99723.57;;;31.85;31.92
70971;BME280;58632;51.718;19.446;2022-07-25T06:47:42;99719.67;;;31.37;32.31
70971;BME280;58632;51.718;19.446;2022-07-25T06:50:13;99715.55;;;30.89;33.60
70971;BME280;58632;51.718;19.446;2022-07-25T06:52:44;99711.37;;;30.76;34.07
70971;BME280;58632;51.718;19.446;2022-07-25T06:55:13;99702.92;;;30.80;33.31
70971;BME280;58632;51.718;19.446;2022-07-25T06:57:41;99712.47;;;30.52;32.45
70971;BME280;58632;51.718;19.446;2022-07-25T07:00:12;99702.49;;;30.60;32.89
70971;BME280;58632;51.718;19.446;2022-07-25T07:02:54;99704.71;;;30.65;34.34
70971;BME280;58632;51.718;19.446;2022-07-25T07:05:25;99712.06;;;30.85;34.34
70971;BME280;58632;51.718;19.446;2022-07-25T07:07:54;99704.72;;;30.92;34.41
70971;BME280;58632;51.718;19.446;2022-07-25T07:10:23;99700.34;;;30.95;33.88
70971;BME280;58632;51.718;19.446;2022-07-25T07:13:06;99704.28;;;30.98;33.54
70971;BME280;58632;51.718;19.446;2022-07-25T07:15:31;99698.95;;;31.00;32.87
70971;BME280;58632;51.718;19.446;2022-07-25T07:17:59;99707.24;;;31.39;32.86
70971;BME280;58632;51.718;19.446;2022-07-25T07:20:26;99698.80;;;31.04;31.81
70971;BME280;58632;51.718;19.446;2022-07-25T07:22:54;99698.34;;;31.05;32.98
70971;BME280;58632;51.718;19.446;2022-07-25T07:25:21;99701.74;;;30.91;32.72
70971;BME280;58632;51.718;19.446;2022-07-25T07:27:50;99711.23;;;31.11;33.85
70971;BME280;58632;51.718;19.446;2022-07-25T07:30:17;99703.16;;;30.91;31.21
70971;BME280;58632;51.718;19.446;2022-07-25T07:32:45;99700.00;;;30.62;31.38
70971;BME280;58632;51.718;19.446;2022-07-25T07:35:12;99700.45;;;30.60;31.67
70971;BME280;58632;51.718;19.446;2022-07-25T07:37:42;99684.58;;;30.58;32.00
70971;BME280;58632;51.718;19.446;2022-07-25T07:40:12;99690.93;;;30.98;32.31
70971;BME280;58632;51.718;19.446;2022-07-25T07:42:43;99686.73;;;31.08;32.23
70971;BME280;58632;51.718;19.446;2022-07-25T07:45:18;99686.48;;;31.29;32.11
70971;BME280;58632;51.718;19.446;2022-07-25T07:47:52;99679.34;;;31.55;32.33
70971;BME280;58632;51.718;19.446;2022-07-25T07:50:23;99682.02;;;31.54;32.39
70971;BME280;58632;51.718;19.446;2022-07-25T07:52:52;99675.47;;;31.21;32.80
70971;BME280;58632;51.718;19.446;2022-07-25T07:55:21;99672.23;;;30.96;33.18
70971;BME280;58632;51.718;19.446;2022-07-25T07:58:07;99670.43;;;31.16;31.97
70971;BME280;58632;51.718;19.446;2022-07-25T08:00:36;99671.63;;;31.42;30.90
70971;BME280;58632;51.718;19.446;2022-07-25T08:03:05;99669.16;;;31.17;32.63
70971;BME280;58632;51.718;19.446;2022-07-25T08:05:41;99667.08;;;31.09;32.12
70971;BME280;58632;51.718;19.446;2022-07-25T08:08:12;99664.16;;;31.21;31.07
70971;BME280;58632;51.718;19.446;2022-07-25T08:10:47;99659.88;;;31.12;31.81
70971;BME280;58632;51.718;19.446;2022-07-25T08:13:23;99658.00;;;30.83;31.41
70971;BME280;58632;51.718;19.446;2022-07-25T08:15:54;99654.21;;;31.08;32.40
70971;BME280;58632;51.718;19.446;2022-07-25T08:18:23;99657.20;;;31.13;32.60
70971;BME280;58632;51.718;19.446;2022-07-25T08:20:52;99653.03;;;30.87;31.16
70971;BME280;58632;51.718;19.446;2022-07-25T08:23:20;99646.17;;;30.70;32.71
70971;BME280;58632;51.718;19.446;2022-07-25T08:25:48;99645.23;;;30.64;31.64
70971;BME280;58632;51.718;19.446;2022-07-25T08:28:15;99644.77;;;31.06;31.02
70971;BME280;58632;51.718;19.446;2022-07-25T08:30:43;99643.91;;;31.23;31.31
70971;BME280;58632;51.718;19.446;2022-07-25T08:33:11;99647.52;;;31.23;33.03
70971;BME280;58632;51.718;19.446;2022-07-25T08:35:50;99642.34;;;31.31;31.66
70971;BME280;58632;51.718;19.446;2022-07-25T08:38:21;99634.81;;;31.37;30.94
70971;BME280;58632;51.718;19.446;2022-07-25T08:40:50;99632.45;;;31.36;29.82
70971;BME280;58632;51.718;19.446;2022-07-25T08:43:19;99636.44;;;31.61;31.26
70971;BME280;58632;51.718;19.446;2022-07-25T08:45:49;99638.01;;;31.72;29.77
70971;BME280;58632;51.718;19.446;2022-07-25T08:48:21;99633.62;;;31.71;30.74
70971;BME280;58632;51.718;19.446;2022-07-25T08:50:51;99638.80;;;31.54;29.47
70971;BME280;58632;51.718;19.446;2022-07-25T08:53:20;99632.64;;;31.46;30.91
70971;BME280;58632;51.718;19.446;2022-07-25T08:55:47;99637.20;;;31.48;31.77
70971;BME280;58632;51.718;19.446;2022-07-25T08:58:16;99633.98;;;31.28;30.64
70971;BME280;58632;51.718;19.446;2022-07-25T09:00:44;99639.23;;;30.89;32.55
70971;BME280;58632;51.718;19.446;2022-07-25T09:03:12;99636.55;;;30.90;31.20
70971;BME280;58632;51.718;19.446;2022-07-25T09:05:40;99630.66;;;31.11;32.93
70971;BME280;58632;51.718;19.446;2022-07-25T09:08:16;99632.56;;;31.14;33.43
70971;BME280;58632;51.718;19.446;2022-07-25T09:10:51;99634.26;;;31.02;31.22
70971;BME280;58632;51.718;19.446;2022-07-25T09:13:19;99622.80;;;31.10;29.98
70971;BME280;58632;51.718;19.446;2022-07-25T09:15:50;99621.40;;;31.15;29.25
70971;BME280;58632;51.718;19.446;2022-07-25T09:18:24;99623.80;;;31.30;30.65
70971;BME280;58632;51.718;19.446;2022-07-25T09:20:57;99621.17;;;31.45;31.06
70971;BME280;58632;51.718;19.446;2022-07-25T09:23:29;99623.14;;;31.17;30.25
70971;BME280;58632;51.718;19.446;2022-07-25T09:28:48;99618.34;;;31.40;31.81
70971;BME280;58632;51.718;19.446;2022-07-25T09:31:18;99612.95;;;31.29;30.40
70971;BME280;58632;51.718;19.446;2022-07-25T09:33:48;99610.10;;;31.19;31.91
70971;BME280;58632;51.718;19.446;2022-07-25T09:36:17;99615.85;;;30.93;29.34
70971;BME280;58632;51.718;19.446;2022-07-25T09:39:00;99612.87;;;30.65;28.85
70971;BME280;58632;51.718;19.446;2022-07-25T09:41:35;99601.80;;;30.44;29.13
70971;BME280;58632;51.718;19.446;2022-07-25T09:44:21;99604.97;;;30.51;29.77
70971;BME280;58632;51.718;19.446;2022-07-25T09:46:51;99602.00;;;30.50;30.01
70971;BME280;58632;51.718;19.446;2022-07-25T09:49:19;99598.80;;;30.38;30.65
70971;BME280;58632;51.718;19.446;2022-07-25T09:51:46;99591.70;;;30.34;29.31
70971;BME280;58632;51.718;19.446;2022-07-25T09:54:14;99586.04;;;30.65;30.28
70971;BME280;58632;51.718;19.446;2022-07-25T09:56:42;99590.14;;;30.73;31.52
70971;BME280;58632;51.718;19.446;2022-07-25T09:59:09;99580.58;;;30.39;29.83
70971;BME280;58632;51.718;19.446;2022-07-25T10:01:43;99586.76;;;30.25;31.29
70971;BME280;58632;51.718;19.446;2022-07-25T10:04:23;99577.27;;;30.10;29.60
70971;BME280;58632;51.718;19.446;2022-07-25T10:07:07;99574.02;;;30.21;30.04
70971;BME280;58632;51.718;19.446;2022-07-25T10:09:44;99571.17;;;30.16;30.16
70971;BME280;58632;51.718;19.446;2022-07-25T10:12:18;99569.81;;;30.25;30.40
70971;BME280;58632;51.718;19.446;2022-07-25T10:15:05;99563.11;;;30.27;31.12
70971;BME280;58632;51.718;19.446;2022-07-25T10:17:36;99558.31;;;30.42;30.70
70971;BME280;58632;51.718;19.446;2022-07-25T10:20:07;99558.05;;;30.22;29.89
70971;BME280;58632;51.718;19.446;2022-07-25T10:25:16;99548.83;;;30.04;31.62
70971;BME280;58632;51.718;19.446;2022-07-25T10:27:50;99538.14;;;29.99;29.88
70971;BME280;58632;51.718;19.446;2022-07-25T10:30:24;99544.12;;;30.01;29.63
70971;BME280;58632;51.718;19.446;2022-07-25T10:33:10;99542.38;;;29.99;29.79
70971;BME280;58632;51.718;19.446;2022-07-25T10:35:32;99532.38;;;30.03;28.17
70971;BME280;58632;51.718;19.446;2022-07-25T10:38:02;99532.62;;;30.22;28.89
70971;BME280;58632;51.718;19.446;2022-07-25T10:40:39;99533.39;;;30.49;28.90
70971;BME280;58632;51.718;19.446;2022-07-25T10:43:13;99527.16;;;30.64;30.07
70971;BME280;58632;51.718;19.446;2022-07-25T10:45:58;99528.42;;;30.63;28.67
70971;BME280;58632;51.718;19.446;2022-07-25T10:48:29;99533.16;;;30.30;28.00
70971;BME280;58632;51.718;19.446;2022-07-25T10:51:09;99525.14;;;30.02;28.26
70971;BME280;58632;51.718;19.446;2022-07-25T10:53:43;99525.02;;;30.05;32.21
70971;BME280;58632;51.718;19.446;2022-07-25T10:56:20;99519.65;;;29.98;29.46
70971;BME280;58632;51.718;19.446;2022-07-25T10:58:54;99514.98;;;30.09;28.63
70971;BME280;58632;51.718;19.446;2022-07-25T11:01:32;99512.45;;;30.33;29.74
70971;BME280;58632;51.718;19.446;2022-07-25T11:04:04;99518.16;;;30.47;30.68
70971;BME280;58632;51.718;19.446;2022-07-25T11:06:39;99515.84;;;30.59;28.33
70971;BME280;58632;51.718;19.446;2022-07-25T11:11:47;99503.45;;;30.61;27.80
70971;BME280;58632;51.718;19.446;2022-07-25T11:14:17;99503.95;;;30.64;28.01
70971;BME280;58632;51.718;19.446;2022-07-25T11:16:49;99498.70;;;30.44;28.04
70971;BME280;58632;51.718;19.446;2022-07-25T11:19:25;99499.95;;;30.38;27.71
70971;BME280;58632;51.718;19.446;2022-07-25T11:21:57;99497.27;;;30.39;29.66
70971;BME280;58632;51.718;19.446;2022-07-25T11:24:38;99490.34;;;30.31;30.87
70971;BME280;58632;51.718;19.446;2022-07-25T11:27:09;99485.78;;;30.29;29.70
70971;BME280;58632;51.718;19.446;2022-07-25T11:29:38;99488.23;;;30.23;30.54
70971;BME280;58632;51.718;19.446;2022-07-25T11:32:11;99486.45;;;30.11;31.23
70971;BME280;58632;51.718;19.446;2022-07-25T11:34:46;99484.78;;;30.23;30.08
70971;BME280;58632;51.718;19.446;2022-07-25T11:37:13;99480.78;;;30.33;29.49
70971;BME280;58632;51.718;19.446;2022-07-25T11:39:43;99483.14;;;30.39;28.96
70971;BME280;58632;51.718;19.446;2022-07-25T11:42:14;99474.89;;;30.23;28.88
70971;BME280;58632;51.718;19.446;2022-07-25T11:44:46;99466.84;;;30.08;28.68
70971;BME280;58632;51.718;19.446;2022-07-25T11:47:30;99462.19;;;30.23;28.67
70971;BME280;58632;51.718;19.446;2022-07-25T11:50:01;99461.97;;;30.39;30.18
70971;BME280;58632;51.718;19.446;2022-07-25T11:52:34;99458.84;;;30.47;30.58
70971;BME280;58632;51.718;19.446;2022-07-25T11:55:05;99462.66;;;30.62;29.41
70971;BME280;58632;51.718;19.446;2022-07-25T11:57:36;99446.50;;;30.67;28.36
70971;BME280;58632;51.718;19.446;2022-07-25T12:00:14;99447.29;;;30.72;29.43
70971;BME280;58632;51.718;19.446;2022-07-25T12:02:44;99446.83;;;30.74;29.17
70971;BME280;58632;51.718;19.446;2022-07-25T12:05:15;99442.28;;;30.81;28.86
70971;BME280;58632;51.718;19.446;2022-07-25T12:07:50;99437.91;;;30.94;28.94
70971;BME280;58632;51.718;19.446;2022-07-25T12:10:35;99438.69;;;30.90;29.29
70971;BME280;58632;51.718;19.446;2022-07-25T12:13:02;99435.20;;;30.67;28.57
70971;BME280;58632;51.718;19.446;2022-07-25T12:15:37;99428.92;;;30.72;28.03
70971;BME280;58632;51.718;19.446;2022-07-25T12:18:08;99426.88;;;30.77;28.71
70971;BME280;58632;51.718;19.446;2022-07-25T12:20:41;99424.05;;;30.77;28.41
70971;BME280;58632;51.718;19.446;2022-07-25T12:23:11;99413.83;;;30.66;29.00
70971;BME280;58632;51.718;19.446;2022-07-25T12:25:44;99413.69;;;30.65;27.91
70971;BME280;58632;51.718;19.446;2022-07-25T12:28:12;99412.10;;;30.50;28.13
70971;BME280;58632;51.718;19.446;2022-07-25T12:30:41;99411.79;;;30.53;28.94
70971;BME280;58632;51.718;19.446;2022-07-25T12:33:11;99402.84;;;30.50;28.58
70971;BME280;58632;51.718;19.446;2022-07-25T12:35:39;99408.92;;;30.34;26.59
70971;BME280;58632;51.718;19.446;2022-07-25T12:38:08;99406.32;;;30.13;27.18
70971;BME280;58632;51.718;19.446;2022-07-25T12:40:36;99399.97;;;30.27;26.83
70971;BME280;58632;51.718;19.446;2022-07-25T12:43:04;99396.38;;;30.45;26.78
70971;BME280;58632;51.718;19.446;2022-07-25T12:45:32;99393.27;;;30.56;28.24
70971;BME280;58632;51.718;19.446;2022-07-25T12:48:00;99394.84;;;30.57;27.63
70971;BME280;58632;51.718;19.446;2022-07-25T12:50:28;99389.03;;;30.61;28.59
70971;BME280;58632;51.718;19.446;2022-07-25T12:52:55;99386.50;;;30.45;26.93
70971;BME280;58632;51.718;19.446;2022-07-25T12:55:23;99383.50;;;30.34;27.54
70971;BME280;58632;51.718;19.446;2022-07-25T12:57:50;99380.23;;;30.41;28.69
70971;BME280;58632;51.718;19.446;2022-07-25T13:00:20;99378.66;;;30.44;27.23
70971;BME280;58632;51.718;19.446;2022-07-25T13:02:50;99369.41;;;30.48;28.37
70971;BME280;58632;51.718;19.446;2022-07-25T13:05:18;99369.08;;;30.42;26.70
70971;BME280;58632;51.718;19.446;2022-07-25T13:07:46;99368.95;;;30.50;28.63
70971;BME280;58632;51.718;19.446;2022-07-25T13:10:16;99364.71;;;30.45;26.81